sensor_id;sensor_type;location;lat;lon;timestamp;pressure;altitude;pressure_sealevel;temperature;humidity
60719;BME280;46567;51.660;5.824;2022-11-09T00:08:22;100430.0;;;15.2;76.5
60719;BME280;46567;51.660;5.824;2022-11-09T00:18:22;100430.0;;;15.2;76.5
60719;BME280;46567;51.660;5.824;2022-11-09T00:28:22;100430.0;;;15.1;76.5
60719;BME280;46567;51.660;5.824;2022-11-09T00:38:48;100420.0;;;15.1;77.0
60719;BME280;46567;51.660;5.824;2022-11-09T00:48:22;100430.0;;;15.1;77.0
60719;BME280;46567;51.660;5.824;2022-11-09T00:58:22;100430.0;;;15.2;77.5
60719;BME280;46567;51.660;5.824;2022-11-09T01:08:48;100430.0;;;15.2;77.5
60719;BME280;46567;51.660;5.824;2022-11-09T01:18:22;100430.0;;;15.2;77.5
60719;BME280;46567;51.660;5.824;2022-11-09T01:38:22;100450.0;;;15.0;77.5
60719;BME280;46567;51.660;5.824;2022-11-09T01:58:25;100440.0;;;14.8;78.0
60719;BME280;46567;51.660;5.824;2022-11-09T02:08:24;100450.0;;;14.8;78.0
60719;BME280;46567;51.660;5.824;2022-11-09T02:18:22;100430.0;;;14.7;78.0
60719;BME280;46567;51.660;5.824;2022-11-09T02:28:22;100450.0;;;14.7;78.5
60719;BME280;46567;51.660;5.824;2022-11-09T02:48:22;100450.0;;;14.6;78.5
60719;BME280;46567;51.660;5.824;2022-11-09T03:08:22;100440.0;;;14.6;78.5
60719;BME280;46567;51.660;5.824;2022-11-09T03:18:22;100420.0;;;14.7;78.0
60719;BME280;46567;51.660;5.824;2022-11-09T03:28:22;100450.0;;;14.8;78.0
60719;BME280;46567;51.660;5.824;2022-11-09T03:38:22;100480.0;;;14.8;77.5
60719;BME280;46567;51.660;5.824;2022-11-09T03:48:22;100500.0;;;14.8;78.0
60719;BME280;46567;51.660;5.824;2022-11-09T03:58:47;100510.0;;;14.8;78.0
60719;BME280;46567;51.660;5.824;2022-11-09T04:08:22;100510.0;;;14.7;78.0
60719;BME280;46567;51.660;5.824;2022-11-09T04:18:22;100530.0;;;14.7;78.0
60719;BME280;46567;51.660;5.824;2022-11-09T04:28:22;100520.0;;;14.6;78.0
60719;BME280;46567;51.660;5.824;2022-11-09T04:38:22;100530.0;;;14.6;78.0
60719;BME280;46567;51.660;5.824;2022-11-09T04:48:47;100540.0;;;14.5;78.5
60719;BME280;46567;51.660;5.824;2022-11-09T04:58:22;100550.0;;;14.3;78.5
60719;BME280;46567;51.660;5.824;2022-11-09T05:08:22;100540.0;;;14.2;79.0
60719;BME280;46567;51.660;5.824;2022-11-09T05:38:22;100530.0;;;13.9;80.5
60719;BME280;46567;51.660;5.824;2022-11-09T05:58:22;100550.0;;;13.8;80.5
60719;BME280;46567;51.660;5.824;2022-11-09T06:18:23;100560.0;;;13.6;81.0
60719;BME280;46567;51.660;5.824;2022-11-09T06:38:22;100580.0;;;13.5;81.5
60719;BME280;46567;51.660;5.824;2022-11-09T06:48:22;100590.0;;;13.5;81.5
60719;BME280;46567;51.660;5.824;2022-11-09T06:58:22;100590.0;;;13.4;82.0
60719;BME280;46567;51.660;5.824;2022-11-09T07:08:22;100600.0;;;13.3;82.0
60719;BME280;46567;51.660;5.824;2022-11-09T07:18:22;100610.0;;;13.3;82.5
60719;BME280;46567;51.660;5.824;2022-11-09T07:28:22;100610.0;;;13.3;83.0
60719;BME280;46567;51.660;5.824;2022-11-09T07:38:22;100620.0;;;13.3;83.0
60719;BME280;46567;51.660;5.824;2022-11-09T07:48:22;100630.0;;;13.3;83.0
60719;BME280;46567;51.660;5.824;2022-11-09T07:58:23;100640.0;;;13.4;83.0
60719;BME280;46567;51.660;5.824;2022-11-09T08:08:22;100640.0;;;13.5;83.0
60719;BME280;46567;51.660;5.824;2022-11-09T08:18:47;100650.0;;;13.5;83.0
60719;BME280;46567;51.660;5.824;2022-11-09T08:28:47;100660.0;;;13.6;83.0
60719;BME280;46567;51.660;5.824;2022-11-09T08:48:22;100680.0;;;13.8;83.0
60719;BME280;46567;51.660;5.824;2022-11-09T08:58:47;100680.0;;;13.9;83.0
60719;BME280;46567;51.660;5.824;2022-11-09T09:08:22;100670.0;;;14.1;82.5
60719;BME280;46567;51.660;5.824;2022-11-09T09:18:22;100670.0;;;14.3;82.0
60719;BME280;46567;51.660;5.824;2022-11-09T09:38:22;100690.0;;;14.8;81.0
60719;BME280;46567;51.660;5.824;2022-11-09T09:48:41;100690.0;;;14.9;80.0
60719;BME280;46567;51.660;5.824;2022-11-09T09:58:24;100720.0;;;15.1;80.0
60719;BME280;46567;51.660;5.824;2022-11-09T10:08:38;100710.0;;;15.2;79.0
60719;BME280;46567;51.660;5.824;2022-11-09T10:18:32;100720.0;;;15.4;79.0
60719;BME280;46567;51.660;5.824;2022-11-09T10:28:25;100720.0;;;15.7;78.0
60719;BME280;46567;51.660;5.824;2022-11-09T10:38:29;100720.0;;;15.8;77.0
60719;BME280;46567;51.660;5.824;2022-11-09T10:48:29;100720.0;;;16.2;76.0
60719;BME280;46567;51.660;5.824;2022-11-09T10:58:35;100730.0;;;16.2;74.5
60719;BME280;46567;51.660;5.824;2022-11-09T11:08:26;100740.0;;;16.3;73.5
60719;BME280;46567;51.660;5.824;2022-11-09T11:18:24;100740.0;;;16.3;73.0
60719;BME280;46567;51.660;5.824;2022-11-09T11:28:28;100750.0;;;16.2;72.0
60719;BME280;46567;51.660;5.824;2022-11-09T11:38:46;100750.0;;;16.1;72.5
60719;BME280;46567;51.660;5.824;2022-11-09T11:49:05;100750.0;;;16.2;71.5
60719;BME280;46567;51.660;5.824;2022-11-09T11:59:00;100760.0;;;16.1;72.0
60719;BME280;46567;51.660;5.824;2022-11-09T12:08:44;100770.0;;;16.0;72.0
60719;BME280;46567;51.660;5.824;2022-11-09T12:18:38;100760.0;;;15.9;72.0
60719;BME280;46567;51.660;5.824;2022-11-09T12:28:57;100750.0;;;16.0;71.5
60719;BME280;46567;51.660;5.824;2022-11-09T12:38:29;100740.0;;;16.3;71.5
60719;BME280;46567;51.660;5.824;2022-11-09T12:48:24;100750.0;;;16.7;70.0
60719;BME280;46567;51.660;5.824;2022-11-09T12:58:24;100760.0;;;16.5;69.0
60719;BME280;46567;51.660;5.824;2022-11-09T13:08:25;100770.0;;;16.3;69.5
60719;BME280;46567;51.660;5.824;2022-11-09T13:18:51;100780.0;;;16.3;70.0
60719;BME280;46567;51.660;5.824;2022-11-09T13:29:16;100790.0;;;16.4;69.0
60719;BME280;46567;51.660;5.824;2022-11-09T13:38:25;100810.0;;;15.5;67.5
60719;BME280;46567;51.660;5.824;2022-11-09T13:48:34;100820.0;;;14.6;69.0
60719;BME280;46567;51.660;5.824;2022-11-09T13:58:29;100820.0;;;14.5;71.0
60719;BME280;46567;51.660;5.824;2022-11-09T14:08:24;100830.0;;;14.5;71.5
60719;BME280;46567;51.660;5.824;2022-11-09T14:18:52;100850.0;;;14.4;73.0
60719;BME280;46567;51.660;5.824;2022-11-09T14:28:25;100860.0;;;14.1;74.5
60719;BME280;46567;51.660;5.824;2022-11-09T14:38:24;100870.0;;;14.3;74.0
60719;BME280;46567;51.660;5.824;2022-11-09T14:48:23;100880.0;;;14.1;74.5
60719;BME280;46567;51.660;5.824;2022-11-09T14:58:22;100890.0;;;13.8;74.5
60719;BME280;46567;51.660;5.824;2022-11-09T15:08:22;100900.0;;;13.6;76.5
60719;BME280;46567;51.660;5.824;2022-11-09T15:18:27;100910.0;;;13.5;77.0
60719;BME280;46567;51.660;5.824;2022-11-09T15:28:24;100920.0;;;13.5;77.5
60719;BME280;46567;51.660;5.824;2022-11-09T15:38:32;100920.0;;;15.8;69.0
60719;BME280;46567;51.660;5.824;2022-11-09T15:48:22;100940.0;;;15.0;70.5
60719;BME280;46567;51.660;5.824;2022-11-09T16:08:22;100960.0;;;14.7;71.5
60719;BME280;46567;51.660;5.824;2022-11-09T16:18:22;100980.0;;;14.6;71.5
60719;BME280;46567;51.660;5.824;2022-11-09T16:28:22;100990.0;;;14.4;72.0
60719;BME280;46567;51.660;5.824;2022-11-09T16:38:22;100990.0;;;14.2;72.5
60719;BME280;46567;51.660;5.824;2022-11-09T16:48:22;101020.0;;;14.1;73.0
60719;BME280;46567;51.660;5.824;2022-11-09T16:58:22;101030.0;;;14.0;73.5
60719;BME280;46567;51.660;5.824;2022-11-09T17:08:22;101060.0;;;13.9;73.5
60719;BME280;46567;51.660;5.824;2022-11-09T17:18:22;101080.0;;;13.8;74.0
60719;BME280;46567;51.660;5.824;2022-11-09T17:28:23;101100.0;;;13.6;74.5
60719;BME280;46567;51.660;5.824;2022-11-09T17:38:22;101130.0;;;13.5;75.0
60719;BME280;46567;51.660;5.824;2022-11-09T17:48:22;101140.0;;;13.5;75.5
60719;BME280;46567;51.660;5.824;2022-11-09T17:58:23;101150.0;;;13.5;75.5
60719;BME280;46567;51.660;5.824;2022-11-09T18:08:22;101160.0;;;13.4;75.5
60719;BME280;46567;51.660;5.824;2022-11-09T18:18:22;101180.0;;;13.5;75.0
60719;BME280;46567;51.660;5.824;2022-11-09T18:28:22;101190.0;;;13.3;75.5
60719;BME280;46567;51.660;5.824;2022-11-09T18:38:22;101210.0;;;13.1;76.0
60719;BME280;46567;51.660;5.824;2022-11-09T18:48:23;101220.0;;;13.0;76.0
60719;BME280;46567;51.660;5.824;2022-11-09T18:58:22;101230.0;;;12.9;76.5
60719;BME280;46567;51.660;5.824;2022-11-09T19:08:23;101250.0;;;12.8;76.5
60719;BME280;46567;51.660;5.824;2022-11-09T19:18:22;101250.0;;;12.7;77.0
60719;BME280;46567;51.660;5.824;2022-11-09T19:28:22;101280.0;;;12.6;77.0
60719;BME280;46567;51.660;5.824;2022-11-09T19:38:22;101290.0;;;12.5;77.5
60719;BME280;46567;51.660;5.824;2022-11-09T19:48:22;101300.0;;;12.3;78.0
60719;BME280;46567;51.660;5.824;2022-11-09T19:58:22;101310.0;;;12.2;78.0
60719;BME280;46567;51.660;5.824;2022-11-09T20:08:23;101330.0;;;12.1;78.5
60719;BME280;46567;51.660;5.824;2022-11-09T20:18:22;101350.0;;;12.0;79.0
60719;BME280;46567;51.660;5.824;2022-11-09T20:28:22;101380.0;;;12.0;79.0
60719;BME280;46567;51.660;5.824;2022-11-09T20:38:23;101380.0;;;12.0;79.5
60719;BME280;46567;51.660;5.824;2022-11-09T20:48:22;101400.0;;;12.0;80.0
60719;BME280;46567;51.660;5.824;2022-11-09T20:58:22;101410.0;;;12.0;80.0
60719;BME280;46567;51.660;5.824;2022-11-09T21:08:23;101430.0;;;12.0;80.0
60719;BME280;46567;51.660;5.824;2022-11-09T21:18:22;101430.0;;;11.9;80.5
60719;BME280;46567;51.660;5.824;2022-11-09T21:28:23;101430.0;;;11.8;80.5
60719;BME280;46567;51.660;5.824;2022-11-09T21:38:23;101440.0;;;11.8;80.5
60719;BME280;46567;51.660;5.824;2022-11-09T21:48:22;101460.0;;;11.7;81.0
60719;BME280;46567;51.660;5.824;2022-11-09T21:58:22;101450.0;;;11.6;81.5
60719;BME280;46567;51.660;5.824;2022-11-09T22:08:22;101470.0;;;11.6;81.5
60719;BME280;46567;51.660;5.824;2022-11-09T22:18:22;101480.0;;;11.5;81.5
60719;BME280;46567;51.660;5.824;2022-11-09T22:28:22;101490.0;;;11.5;82.0
60719;BME280;46567;51.660;5.824;2022-11-09T22:48:22;101520.0;;;11.4;82.5
60719;BME280;46567;51.660;5.824;2022-11-09T22:58:23;101530.0;;;11.4;82.5
60719;BME280;46567;51.660;5.824;2022-11-09T23:08:23;101550.0;;;11.3;82.5
60719;BME280;46567;51.660;5.824;2022-11-09T23:38:23;101580.0;;;11.3;83.5
60719;BME280;46567;51.660;5.824;2022-11-09T23:48:23;101590.0;;;11.2;84.0
60719;BME280;46567;51.660;5.824;2022-11-09T23:58:23;101610.0;;;11.2;84.0
